Newark, Maryland
Current Conditions -  °F | °C
As of 3:53 PM on Thursday 18 Dec 2014 (Local Time) from KOXB Reporting Station
Clear Clear  
Wind Chill: 32°   Ceiling: Unl
Heat Index: 39°   Visibility: 10mi
Dew Point: 23°   Wind: 12mph
Humidity: 53%   Direction: 320°NW
Pressure: 30.06"   Gusts: 22mph
Location:  38.24°N, 75.28°W
Report Text: KOXB 182053Z AUTO 32010G19KT 10SM CLR 04/M05 A3006 RMK AO2 SLP179 T00391050 55000 TSNO
Loading
Personal Weather Stations






























Interactive Weather Map New forecast layout! Learn more

10-Day Weather Forecast

Advertisements
Track Severe Weather on mobile